createdAt,value
2022-09-20T00:00:57.940Z,1.20
2022-09-20T00:01:58.804Z,3.10
2022-09-20T00:02:59.706Z,2.10
2022-09-20T00:04:00.587Z,1.50
2022-09-20T00:05:01.555Z,3.70
2022-09-20T00:06:02.454Z,2.80
2022-09-20T00:07:03.346Z,1.60
2022-09-20T00:08:04.220Z,1.80
2022-09-20T00:09:05.123Z,1.30
2022-09-20T00:10:06.038Z,2.10
2022-09-20T00:11:06.933Z,2.60
2022-09-20T00:12:07.831Z,1.70
2022-09-20T00:13:08.731Z,1.20
2022-09-20T00:14:09.639Z,1.60
2022-09-20T00:15:10.534Z,1.50
2022-09-20T00:16:11.473Z,3.20
2022-09-20T00:17:12.345Z,1.20
2022-09-20T00:18:13.243Z,1.40
2022-09-20T00:19:14.145Z,3.30
2022-09-20T00:20:15.075Z,2.50
2022-09-20T00:21:15.956Z,2.40
2022-09-20T00:22:16.849Z,0.80
2022-09-20T00:23:17.729Z,3.30
2022-09-20T00:24:18.628Z,1.20
2022-09-20T00:25:19.536Z,1.50
2022-09-20T00:26:20.436Z,1.50
2022-09-20T00:27:21.322Z,1.70
2022-09-20T00:28:22.206Z,1.60
2022-09-20T00:29:23.092Z,2.40
2022-09-20T00:30:24.003Z,2.40
2022-09-20T00:31:24.991Z,2.60
2022-09-20T00:32:25.844Z,3.00
2022-09-20T00:33:26.719Z,3.70
2022-09-20T00:34:27.605Z,1.20
2022-09-20T00:35:28.546Z,2.30
2022-09-20T00:36:29.397Z,2.90
2022-09-20T00:37:30.271Z,2.20
2022-09-20T00:38:31.156Z,4.80
2022-09-20T00:39:32.040Z,1.90
2022-09-20T00:40:32.953Z,2.70
2022-09-20T00:41:33.820Z,1.90
2022-09-20T00:42:34.698Z,3.40
2022-09-20T00:43:35.582Z,3.30
2022-09-20T00:44:36.464Z,2.20
2022-09-20T00:45:37.420Z,2.20
2022-09-20T00:46:38.261Z,1.70
2022-09-20T00:47:39.148Z,2.70
2022-09-20T00:48:40.035Z,2.70
2022-09-20T00:49:40.910Z,2.80
2022-09-20T00:50:41.825Z,2.40
2022-09-20T00:51:42.682Z,1.30
2022-09-20T00:52:43.567Z,3.10
2022-09-20T00:53:44.450Z,1.90
2022-09-20T00:54:45.331Z,1.60
2022-09-20T00:55:46.215Z,1.50
2022-09-20T00:56:47.100Z,2.00
2022-09-20T00:57:47.980Z,1.30
2022-09-20T00:58:48.864Z,1.90
2022-09-20T00:59:49.748Z,1.60
2022-09-20T01:00:50.652Z,1.20
2022-09-20T01:01:51.637Z,1.40
2022-09-20T01:02:52.470Z,4.10
2022-09-20T01:03:53.355Z,1.30
2022-09-20T01:04:54.237Z,1.20
2022-09-20T01:05:55.151Z,1.60
2022-09-20T01:06:56.021Z,2.50
2022-09-20T01:07:56.899Z,1.70
2022-09-20T01:08:57.781Z,3.20
2022-09-20T01:09:58.666Z,1.00
2022-09-20T01:10:59.560Z,1.70
2022-09-20T01:12:00.442Z,1.40
2022-09-20T01:13:01.325Z,1.60
2022-09-20T01:14:02.209Z,1.60
2022-09-20T01:15:03.116Z,1.80
2022-09-20T01:16:04.041Z,2.30
2022-09-20T01:17:04.893Z,3.00
2022-09-20T01:18:05.772Z,3.20
2022-09-20T01:19:06.743Z,0.70
2022-09-20T01:20:07.633Z,1.20
2022-09-20T01:21:08.513Z,1.70
2022-09-20T01:22:09.388Z,1.00
2022-09-20T01:23:10.280Z,1.10
2022-09-20T01:24:11.174Z,1.40
2022-09-20T01:25:12.085Z,1.00
2022-09-20T01:26:12.966Z,1.40
2022-09-20T01:27:13.845Z,1.60
2022-09-20T01:28:14.730Z,1.10
2022-09-20T01:29:15.620Z,1.10
2022-09-20T01:30:16.500Z,1.80
2022-09-20T01:31:17.419Z,1.00
2022-09-20T01:32:18.264Z,3.10
2022-09-20T01:33:19.148Z,0.90
2022-09-20T01:34:20.036Z,0.80
2022-09-20T01:35:20.932Z,1.60
2022-09-20T01:36:21.830Z,1.60
2022-09-20T01:37:22.696Z,1.20
2022-09-20T01:38:23.568Z,1.10
2022-09-20T01:39:24.456Z,1.60
2022-09-20T01:40:25.426Z,0.70
2022-09-20T01:41:26.271Z,2.00
2022-09-20T01:42:27.174Z,1.40
2022-09-20T01:43:28.040Z,2.90
2022-09-20T01:44:28.925Z,1.30
2022-09-20T01:45:29.902Z,1.50
2022-09-20T01:46:30.750Z,2.60
2022-09-20T01:47:31.629Z,1.90
2022-09-20T01:48:32.528Z,3.40
2022-09-20T01:49:33.406Z,1.70
2022-09-20T01:50:34.297Z,2.10
2022-09-20T01:51:35.200Z,2.70
2022-09-20T01:52:36.063Z,1.20
2022-09-20T01:53:36.945Z,0.90
2022-09-20T01:54:37.835Z,1.40
2022-09-20T01:55:38.825Z,1.10
2022-09-20T01:56:39.646Z,1.80
2022-09-20T01:57:40.531Z,2.10
2022-09-20T01:58:41.413Z,1.80
2022-09-20T01:59:42.297Z,1.60
2022-09-20T02:00:43.241Z,2.30
2022-09-20T02:01:44.086Z,2.50
2022-09-20T02:02:45.059Z,1.30
2022-09-20T02:03:45.896Z,2.40
2022-09-20T02:04:46.775Z,4.20
2022-09-20T02:05:47.674Z,2.40
2022-09-20T02:06:48.571Z,2.10
2022-09-20T02:07:49.469Z,1.70
2022-09-20T02:08:50.338Z,0.90
2022-09-20T02:09:51.216Z,4.10
2022-09-20T02:10:52.113Z,2.30
2022-09-20T02:11:53.007Z,2.10
2022-09-20T02:12:53.879Z,0.80
2022-09-20T02:13:54.765Z,1.10
2022-09-20T02:14:55.645Z,0.80
2022-09-20T02:15:56.566Z,1.20
2022-09-20T02:16:57.501Z,2.20
2022-09-20T02:17:58.345Z,3.00
2022-09-20T02:18:59.236Z,1.00
2022-09-20T02:20:00.135Z,1.40
2022-09-20T02:21:01.042Z,1.40
2022-09-20T02:22:01.939Z,2.20
2022-09-20T02:23:02.850Z,1.30
2022-09-20T02:24:03.729Z,1.80
2022-09-20T02:25:04.629Z,1.80
2022-09-20T02:26:05.510Z,2.20
2022-09-20T02:27:06.391Z,1.60
2022-09-20T02:28:07.275Z,2.10
2022-09-20T02:29:08.202Z,0.60
2022-09-20T02:30:09.047Z,1.50
2022-09-20T02:31:10.157Z,1.80
2022-09-20T02:32:10.494Z,1.50
2022-09-20T02:33:11.383Z,1.80
2022-09-20T02:34:12.269Z,1.00
2022-09-20T02:35:13.154Z,1.10
2022-09-20T02:36:14.037Z,0.80
2022-09-20T02:37:14.946Z,1.30
2022-09-20T02:38:15.807Z,2.00
2022-09-20T02:39:16.691Z,0.50
2022-09-20T02:40:17.640Z,0.60
2022-09-20T02:41:18.468Z,0.80
2022-09-20T02:42:19.368Z,0.80
2022-09-20T02:43:20.233Z,1.20
2022-09-20T02:44:21.115Z,1.60
2022-09-20T02:45:22.034Z,2.70
2022-09-20T02:46:22.958Z,2.30
2022-09-20T02:47:23.816Z,1.50
2022-09-20T02:48:24.694Z,2.00
2022-09-20T02:49:25.588Z,1.60
2022-09-20T02:50:26.502Z,1.40
2022-09-20T02:51:27.382Z,1.20
2022-09-20T02:52:28.280Z,1.00
2022-09-20T02:53:29.150Z,1.60
2022-09-20T02:54:30.044Z,1.50
2022-09-20T02:55:30.923Z,2.40
2022-09-20T02:56:31.807Z,3.00
2022-09-20T02:57:32.693Z,1.50
2022-09-20T02:58:33.582Z,2.50
2022-09-20T02:59:34.455Z,2.90
2022-09-20T03:00:35.348Z,1.10
2022-09-20T03:01:36.335Z,4.50
2022-09-20T03:02:37.282Z,1.50
2022-09-20T03:03:38.123Z,2.60
2022-09-20T03:04:38.982Z,1.30
2022-09-20T03:05:39.881Z,1.50
2022-09-20T03:06:40.760Z,3.00
2022-09-20T03:07:41.671Z,1.70
2022-09-20T03:08:42.516Z,2.00
2022-09-20T03:09:43.402Z,2.30
2022-09-20T03:10:44.299Z,2.20
2022-09-20T03:11:45.186Z,1.50
2022-09-20T03:12:46.064Z,1.10
2022-09-20T03:13:46.957Z,1.70
2022-09-20T03:14:47.833Z,0.90
2022-09-20T03:15:48.725Z,1.40
2022-09-20T03:16:52.245Z,1.70
2022-09-20T03:17:50.442Z,1.20
2022-09-20T03:18:51.342Z,3.40
2022-09-20T03:19:52.211Z,1.00
2022-09-20T03:20:53.106Z,2.60
2022-09-20T03:21:53.999Z,2.60
2022-09-20T03:22:54.898Z,2.20
2022-09-20T03:23:55.855Z,39.80
2022-09-20T03:24:56.722Z,31.30
2022-09-20T03:25:57.603Z,72.20
2022-09-20T03:26:58.488Z,73.50
2022-09-20T03:27:59.369Z,52.10
2022-09-20T03:29:00.268Z,59.20
2022-09-20T03:30:01.148Z,88.90
2022-09-20T03:31:02.029Z,57.20
2022-09-20T03:32:02.977Z,10.30
2022-09-20T03:33:03.821Z,9.50
2022-09-20T03:34:04.699Z,6.60
2022-09-20T03:35:05.594Z,8.00
2022-09-20T03:36:06.474Z,5.00
2022-09-20T03:37:07.378Z,2.50
2022-09-20T03:38:08.269Z,2.10
2022-09-20T03:39:09.137Z,6.70
2022-09-20T03:40:10.135Z,2.90
2022-09-20T03:41:10.977Z,4.00
2022-09-20T03:42:11.848Z,3.90
2022-09-20T03:43:12.747Z,3.30
2022-09-20T03:44:13.640Z,3.20
2022-09-20T03:45:14.559Z,2.30
2022-09-20T03:46:15.488Z,2.30
2022-09-20T03:47:16.361Z,3.50
2022-09-20T03:48:17.230Z,1.40
2022-09-20T03:49:18.133Z,1.10
2022-09-20T03:50:19.026Z,1.40
2022-09-20T03:51:19.911Z,1.20
2022-09-20T03:52:20.795Z,3.30
2022-09-20T03:53:21.705Z,2.30
2022-09-20T03:54:22.581Z,1.60
2022-09-20T03:55:23.464Z,1.70
2022-09-20T03:56:24.338Z,1.50
2022-09-20T03:57:25.217Z,1.10
2022-09-20T03:58:26.117Z,0.90
2022-09-20T03:59:26.996Z,1.60
2022-09-20T04:00:27.884Z,0.60
2022-09-20T04:01:28.803Z,0.80
2022-09-20T04:02:29.728Z,0.80
2022-09-20T04:03:30.560Z,5.10
2022-09-20T04:04:31.435Z,2.10
2022-09-20T04:05:32.325Z,2.00
2022-09-20T04:06:33.206Z,2.70
2022-09-20T04:07:34.079Z,3.80
2022-09-20T04:08:39.454Z,1.80
2022-09-20T04:09:36.739Z,1.90
2022-09-20T04:10:36.625Z,4.00
2022-09-20T04:11:37.511Z,2.20
2022-09-20T04:12:38.415Z,1.70
2022-09-20T04:13:39.279Z,1.60
2022-09-20T04:14:40.171Z,2.30
2022-09-20T04:15:41.054Z,2.50
2022-09-20T04:16:41.990Z,4.80
2022-09-20T04:17:42.847Z,2.10
2022-09-20T04:18:43.732Z,2.40
2022-09-20T04:19:44.629Z,1.70
2022-09-20T04:20:45.499Z,1.80
2022-09-20T04:21:46.383Z,1.60
2022-09-20T04:22:47.260Z,2.00
2022-09-20T04:23:48.171Z,1.60
2022-09-20T04:24:49.051Z,1.60
2022-09-20T04:25:49.958Z,3.70
2022-09-20T04:26:50.855Z,2.20
2022-09-20T04:27:51.755Z,4.30
2022-09-20T04:28:52.659Z,2.00
2022-09-20T04:29:53.559Z,1.70
2022-09-20T04:30:54.471Z,3.50
2022-09-20T04:31:55.421Z,1.50
2022-09-20T04:32:56.286Z,2.10
2022-09-20T04:33:57.171Z,2.70
2022-09-20T04:34:58.073Z,1.10
2022-09-20T04:35:58.993Z,1.50
2022-09-20T04:36:59.875Z,3.00
2022-09-20T04:38:00.783Z,4.10
2022-09-20T04:39:01.706Z,3.70
2022-09-20T04:40:02.621Z,2.10
2022-09-20T04:41:03.487Z,4.40
2022-09-20T04:42:04.390Z,3.10
2022-09-20T04:43:05.294Z,3.50
2022-09-20T04:44:06.243Z,4.10
2022-09-20T04:45:06.721Z,2.90
2022-09-20T04:46:07.687Z,3.00
2022-09-20T04:47:08.519Z,2.40
2022-09-20T04:48:09.404Z,4.10
2022-09-20T04:49:10.287Z,1.30
2022-09-20T04:50:11.182Z,2.30
2022-09-20T04:51:12.064Z,2.30
2022-09-20T04:52:12.954Z,3.20
2022-09-20T04:53:13.781Z,5.10
2022-09-20T04:54:14.632Z,2.40
2022-09-20T04:55:15.451Z,1.20
2022-09-20T04:56:16.334Z,1.50
2022-09-20T04:57:17.202Z,1.50
2022-09-20T04:58:18.026Z,2.40
2022-09-20T04:59:18.878Z,2.80
2022-09-20T05:00:19.698Z,1.70
2022-09-20T05:01:20.573Z,3.20
2022-09-20T05:02:21.446Z,2.40
2022-09-20T05:03:22.309Z,2.10
2022-09-20T05:04:23.142Z,2.60
2022-09-20T05:05:23.983Z,2.40
2022-09-20T05:06:24.814Z,3.20
2022-09-20T05:07:25.637Z,2.00
2022-09-20T05:08:26.468Z,1.10
2022-09-20T05:09:27.342Z,3.60
2022-09-20T05:10:28.164Z,5.70
2022-09-20T05:11:28.994Z,1.70
2022-09-20T05:12:29.821Z,2.30
2022-09-20T05:13:30.650Z,2.80
2022-09-20T05:15:32.253Z,2.30
2022-09-20T05:16:33.127Z,12.50
2022-09-20T05:17:33.924Z,35.90
2022-09-20T05:18:34.754Z,19.20
2022-09-20T05:19:35.584Z,29.70
2022-09-20T05:20:36.424Z,24.50
2022-09-20T05:21:37.255Z,13.30
2022-09-20T05:22:38.086Z,5.40
2022-09-20T05:23:38.916Z,5.30
2022-09-20T05:24:39.766Z,3.40
2022-09-20T05:25:40.584Z,3.10
2022-09-20T05:26:41.406Z,2.30
2022-09-20T05:27:42.245Z,3.50
2022-09-20T05:28:43.082Z,2.40
2022-09-20T05:29:43.908Z,3.20
2022-09-20T05:30:44.745Z,1.70
2022-09-20T05:31:45.667Z,1.30
2022-09-20T05:32:46.441Z,2.70
2022-09-20T05:33:47.279Z,3.30
2022-09-20T05:34:48.102Z,3.00
2022-09-20T05:35:48.938Z,4.30
2022-09-20T05:36:49.755Z,4.00
2022-09-20T05:37:50.589Z,4.60
2022-09-20T05:38:51.437Z,3.80
2022-09-20T05:39:52.279Z,1.50
2022-09-20T05:40:53.101Z,3.60
2022-09-20T05:41:53.926Z,2.30
2022-09-20T05:42:54.756Z,2.80
2022-09-20T05:43:55.592Z,2.90
2022-09-20T05:44:56.429Z,3.30
2022-09-20T05:45:57.298Z,4.30
2022-09-20T05:46:58.081Z,3.00
2022-09-20T05:47:58.906Z,3.30
2022-09-20T05:48:59.733Z,2.00
2022-09-20T05:50:00.565Z,1.70
2022-09-20T05:51:03.881Z,1.90
2022-09-20T05:52:02.270Z,1.50
2022-09-20T05:53:03.107Z,3.50
2022-09-20T05:54:03.929Z,2.60
2022-09-20T05:55:04.786Z,2.10
2022-09-20T05:56:05.605Z,1.50
2022-09-20T05:57:06.425Z,1.80
2022-09-20T05:58:07.255Z,2.20
2022-09-20T05:59:10.143Z,1.50
2022-09-20T06:00:08.636Z,2.00
2022-09-20T06:01:09.530Z,5.30
2022-09-20T06:02:10.409Z,2.70
2022-09-20T06:03:11.200Z,4.00
2022-09-20T06:04:12.031Z,3.70
2022-09-20T06:05:12.880Z,3.50
2022-09-20T06:06:13.702Z,2.60
2022-09-20T06:07:14.531Z,4.40
2022-09-20T06:08:15.360Z,5.00
2022-09-20T06:09:16.199Z,4.00
2022-09-20T06:10:17.050Z,4.80
2022-09-20T06:11:17.864Z,2.50
2022-09-20T06:12:18.693Z,3.20
2022-09-20T06:13:19.532Z,4.00
2022-09-20T06:14:20.357Z,2.60
2022-09-20T06:15:21.197Z,3.80
2022-09-20T06:16:22.074Z,4.10
2022-09-20T06:17:22.860Z,3.50
2022-09-20T06:18:23.697Z,2.20
2022-09-20T06:19:24.526Z,3.50
2022-09-20T06:20:25.366Z,3.10
2022-09-20T06:21:26.198Z,2.80
2022-09-20T06:22:27.023Z,1.70
2022-09-20T06:23:27.848Z,2.40
2022-09-20T06:24:28.670Z,6.50
2022-09-20T06:25:29.532Z,2.30
2022-09-20T06:26:30.350Z,1.80
2022-09-20T06:27:31.169Z,3.90
2022-09-20T06:28:32.000Z,2.90
2022-09-20T06:29:32.830Z,2.40
2022-09-20T06:30:33.792Z,2.50
2022-09-20T06:31:34.564Z,4.80
2022-09-20T06:32:35.397Z,2.50
2022-09-20T06:33:36.220Z,2.10
2022-09-20T06:34:37.067Z,5.10
2022-09-20T06:35:37.894Z,1.60
2022-09-20T06:36:38.727Z,4.40
2022-09-20T06:37:39.556Z,1.70
2022-09-20T06:38:40.390Z,1.40
2022-09-20T06:39:41.224Z,2.40
2022-09-20T06:40:42.075Z,1.50
2022-09-20T06:41:42.882Z,4.30
2022-09-20T06:42:43.744Z,3.60
2022-09-20T06:43:44.556Z,2.40
2022-09-20T06:44:45.387Z,2.40
2022-09-20T06:45:46.233Z,3.00
2022-09-20T06:46:47.055Z,1.80
2022-09-20T06:47:47.883Z,1.80
2022-09-20T06:48:48.712Z,3.40
2022-09-20T06:49:49.546Z,2.50
2022-09-20T06:50:50.383Z,1.50
2022-09-20T06:51:51.216Z,1.70
2022-09-20T06:52:52.076Z,7.10
2022-09-20T06:53:52.921Z,2.40
2022-09-20T06:54:53.703Z,2.00
2022-09-20T06:55:54.557Z,2.20
2022-09-20T06:56:55.363Z,4.50
2022-09-20T06:57:56.227Z,3.80
2022-09-20T06:58:57.028Z,3.30
2022-09-20T06:59:57.864Z,2.50
2022-09-20T07:00:58.772Z,4.40
2022-09-20T07:01:59.594Z,3.90
2022-09-20T07:03:00.377Z,4.10
2022-09-20T07:04:01.199Z,2.20
2022-09-20T07:05:02.050Z,2.60
2022-09-20T07:06:02.914Z,4.70
2022-09-20T07:07:07.403Z,2.70
2022-09-20T07:08:05.435Z,3.50
2022-09-20T07:09:05.270Z,2.80
2022-09-20T07:10:06.109Z,2.20
2022-09-20T07:11:06.957Z,2.40
2022-09-20T07:12:07.767Z,3.10
2022-09-20T07:13:08.647Z,4.20
2022-09-20T07:14:09.437Z,2.90
2022-09-20T07:15:10.274Z,5.00
2022-09-20T07:16:11.152Z,5.60
2022-09-20T07:17:12.015Z,8.20
2022-09-20T07:18:12.854Z,8.70
2022-09-20T07:19:13.718Z,5.70
2022-09-20T07:20:16.542Z,7.90
2022-09-20T07:21:16.244Z,6.80
2022-09-20T07:22:16.068Z,11.10
2022-09-20T07:23:16.896Z,6.80
2022-09-20T07:24:17.729Z,9.80
2022-09-20T07:25:18.606Z,8.70
2022-09-20T07:26:19.431Z,6.80
2022-09-20T07:27:20.244Z,7.20
2022-09-20T07:28:21.083Z,8.70
2022-09-20T07:29:21.910Z,6.80
2022-09-20T07:30:22.893Z,9.60
2022-09-20T07:31:23.762Z,7.80
2022-09-20T07:32:24.547Z,4.20
2022-09-20T07:33:25.374Z,5.30
2022-09-20T07:34:26.196Z,3.90
2022-09-20T07:35:27.034Z,5.50
2022-09-20T07:36:27.855Z,4.70
2022-09-20T07:37:28.737Z,4.40
2022-09-20T07:38:29.548Z,6.30
2022-09-20T07:39:30.372Z,6.00
2022-09-20T07:40:31.261Z,6.70
2022-09-20T07:41:32.086Z,4.80
2022-09-20T07:42:32.884Z,5.20
2022-09-20T07:43:33.761Z,3.50
2022-09-20T07:44:34.561Z,9.60
2022-09-20T07:45:35.439Z,3.60
2022-09-20T07:46:36.224Z,6.70
2022-09-20T07:47:37.053Z,3.50
2022-09-20T07:48:37.878Z,5.40
2022-09-20T07:49:38.734Z,5.50
2022-09-20T07:50:39.550Z,4.40
2022-09-20T07:51:40.378Z,4.30
2022-09-20T07:52:41.202Z,3.70
2022-09-20T07:53:42.030Z,3.60
2022-09-20T07:54:42.852Z,2.50
2022-09-20T07:55:43.732Z,3.60
2022-09-20T07:56:44.546Z,4.40
2022-09-20T07:57:45.357Z,5.30
2022-09-20T07:58:51.342Z,6.20
2022-09-20T07:59:47.916Z,6.20
2022-09-20T08:00:47.801Z,4.60
2022-09-20T08:01:48.606Z,3.40
2022-09-20T08:02:49.403Z,3.10
2022-09-20T08:03:50.232Z,4.50
2022-09-20T08:04:51.062Z,4.00
2022-09-20T08:05:51.902Z,2.00
2022-09-20T08:06:52.718Z,4.60
2022-09-20T08:07:53.674Z,3.10
2022-09-20T08:08:54.431Z,5.00
2022-09-20T08:09:55.259Z,4.00
2022-09-20T08:10:56.093Z,6.00
2022-09-20T08:11:57.039Z,4.70
2022-09-20T08:14:08.099Z,4.40
2022-09-20T08:15:00.227Z,3.80
2022-09-20T08:16:00.066Z,7.80
2022-09-20T08:17:00.915Z,3.20
2022-09-20T08:18:01.733Z,2.90
2022-09-20T08:19:02.554Z,3.80
2022-09-20T08:20:03.427Z,3.00
2022-09-20T08:21:04.225Z,4.80
2022-09-20T08:22:05.052Z,3.30
2022-09-20T08:23:22.631Z,2.20
2022-09-20T08:24:07.590Z,5.60
2022-09-20T08:25:07.426Z,1.80
2022-09-20T08:26:08.298Z,3.40
2022-09-20T08:27:09.147Z,2.00
2022-09-20T08:28:09.945Z,2.20
2022-09-20T08:29:10.775Z,7.00
2022-09-20T08:30:11.615Z,2.10
2022-09-20T08:31:12.443Z,3.60
2022-09-20T08:32:13.273Z,5.00
2022-09-20T08:33:14.156Z,7.70
2022-09-20T08:34:14.978Z,8.00
2022-09-20T08:35:15.790Z,3.90
2022-09-20T08:36:16.621Z,4.60
2022-09-20T08:37:17.452Z,4.00
2022-09-20T08:40:20.855Z,2.80
2022-09-20T08:41:20.630Z,6.50
2022-09-20T08:42:21.493Z,6.10
2022-09-20T08:43:22.727Z,3.00
2022-09-20T08:44:23.022Z,2.90
2022-09-20T08:45:34.414Z,2.60
2022-09-20T08:46:25.656Z,4.70
2022-09-20T08:47:25.463Z,9.50
2022-09-20T08:48:26.294Z,14.20
2022-09-20T08:49:27.125Z,6.20
2022-09-20T08:50:27.953Z,4.30
2022-09-20T08:51:28.824Z,4.50
2022-09-20T08:52:29.931Z,5.70
2022-09-20T08:53:30.205Z,3.10
2022-09-20T08:54:32.256Z,3.60
2022-09-20T08:55:36.456Z,3.30
2022-09-20T08:56:33.439Z,3.10
2022-09-20T08:57:33.306Z,4.60
2022-09-20T08:58:34.089Z,5.00
2022-09-20T08:59:34.918Z,4.30
2022-09-20T09:00:35.758Z,2.50
2022-09-20T09:01:36.585Z,3.00
2022-09-20T09:02:37.460Z,3.80
2022-09-20T09:03:38.315Z,3.50
2022-09-20T09:04:39.132Z,4.00
2022-09-20T09:05:39.958Z,5.10
2022-09-20T09:06:40.790Z,1.50
2022-09-20T09:07:41.620Z,3.30
2022-09-20T09:08:42.448Z,3.00
2022-09-20T09:09:43.358Z,1.70
2022-09-20T09:10:44.134Z,2.90
2022-09-20T09:11:46.180Z,2.90
2022-09-20T09:12:48.707Z,2.80
2022-09-20T09:13:46.218Z,2.50
2022-09-20T09:14:47.051Z,4.20
2022-09-20T09:15:47.880Z,3.10
2022-09-20T09:16:48.769Z,2.40
2022-09-20T09:17:49.542Z,3.70
2022-09-20T09:18:50.364Z,2.20
2022-09-20T09:19:51.201Z,2.40
2022-09-20T09:20:52.021Z,2.40
2022-09-20T09:21:52.855Z,3.10
2022-09-20T09:22:53.710Z,2.50
2022-09-20T09:23:54.511Z,2.40
2022-09-20T09:24:55.356Z,1.40
2022-09-20T09:25:56.180Z,2.60
2022-09-20T09:26:57.011Z,2.70
2022-09-20T09:27:57.861Z,1.60
2022-09-20T09:28:58.715Z,1.80
2022-09-20T09:29:59.531Z,1.90
2022-09-20T09:31:00.361Z,4.50
2022-09-20T09:32:01.262Z,39.00
2022-09-20T09:33:02.051Z,39.80
2022-09-20T09:34:02.879Z,86.10
2022-09-20T09:35:03.776Z,64.40
2022-09-20T09:36:04.226Z,53.00
2022-09-20T09:37:05.045Z,14.30
2022-09-20T09:38:05.875Z,14.00
2022-09-20T09:39:06.708Z,18.90
2022-09-20T09:40:07.587Z,12.90
2022-09-20T09:41:08.419Z,6.40
2022-09-20T09:42:09.198Z,5.80
2022-09-20T09:43:10.047Z,4.90
2022-09-20T09:44:10.868Z,3.70
2022-09-20T09:45:11.700Z,3.40
2022-09-20T09:46:12.580Z,3.30
2022-09-20T09:47:13.411Z,1.90
2022-09-20T09:48:14.195Z,3.20
2022-09-20T09:49:15.198Z,3.90
2022-09-20T09:50:15.704Z,1.90
2022-09-20T09:51:16.467Z,2.40
2022-09-20T09:52:17.296Z,2.60
2022-09-20T09:53:18.161Z,2.90
2022-09-20T09:54:18.959Z,2.10
2022-09-20T09:55:19.799Z,3.00
2022-09-20T09:56:20.628Z,15.60
2022-09-20T09:57:21.449Z,9.90
2022-09-20T09:58:22.298Z,5.70
2022-09-20T09:59:23.152Z,5.80
2022-09-20T10:00:24.047Z,4.00
2022-09-20T10:01:24.959Z,6.50
2022-09-20T10:02:25.891Z,5.00
2022-09-20T10:03:26.662Z,7.40
2022-09-20T10:04:27.490Z,5.70
2022-09-20T10:05:28.384Z,3.00
2022-09-20T10:06:29.184Z,4.90
2022-09-20T10:07:30.009Z,3.70
2022-09-20T10:08:30.835Z,3.30
2022-09-20T10:09:31.655Z,4.70
2022-09-20T10:10:32.519Z,2.70
2022-09-20T10:11:33.389Z,5.10
2022-09-20T10:12:34.185Z,3.30
2022-09-20T10:13:39.642Z,4.00
2022-09-20T10:14:36.715Z,5.50
2022-09-20T10:15:36.554Z,3.40
2022-09-20T10:16:37.416Z,7.80
2022-09-20T10:17:38.276Z,4.10
2022-09-20T10:18:39.066Z,3.30
2022-09-20T10:19:39.902Z,3.60
2022-09-20T10:20:40.738Z,2.20
2022-09-20T10:21:41.567Z,3.10
2022-09-20T10:22:48.369Z,2.90
2022-09-20T10:24:02.490Z,2.60
2022-09-20T10:24:48.494Z,2.60
2022-09-20T10:25:45.572Z,6.20
2022-09-20T10:26:45.396Z,2.80
2022-09-20T10:27:46.227Z,3.40
2022-09-20T10:28:47.085Z,3.40
2022-09-20T10:29:47.908Z,4.70
2022-09-20T10:30:48.792Z,6.00
2022-09-20T10:31:49.558Z,2.80
2022-09-20T10:32:50.386Z,4.80
2022-09-20T10:33:51.205Z,5.00
2022-09-20T10:34:52.040Z,3.80
2022-09-20T10:35:52.962Z,3.30
2022-09-20T10:36:53.766Z,3.10
2022-09-20T10:37:54.572Z,2.70
2022-09-20T10:38:55.400Z,3.50
2022-09-20T10:39:56.324Z,1.60
2022-09-20T10:40:57.209Z,1.50
2022-09-20T10:41:58.054Z,2.90
2022-09-20T10:42:58.851Z,3.00
2022-09-20T10:44:04.932Z,3.40
2022-09-20T10:45:01.395Z,1.20
2022-09-20T10:46:27.890Z,3.90
2022-09-20T10:47:03.023Z,3.00
2022-09-20T10:48:02.875Z,4.80
2022-09-20T10:49:03.674Z,4.00
2022-09-20T10:50:04.494Z,3.30
2022-09-20T10:51:05.330Z,2.20
2022-09-20T10:52:06.161Z,4.20
2022-09-20T10:53:06.991Z,2.60
2022-09-20T10:54:07.859Z,2.60
2022-09-20T10:55:08.655Z,1.30
2022-09-20T10:56:09.508Z,5.40
2022-09-20T10:57:10.328Z,3.00
2022-09-20T10:58:11.158Z,6.10
2022-09-20T10:59:12.020Z,6.50
2022-09-20T11:00:12.952Z,1.90
2022-09-20T11:01:13.408Z,3.10
2022-09-20T11:02:14.266Z,2.80
2022-09-20T11:03:15.054Z,4.60
2022-09-20T11:04:15.874Z,4.60
2022-09-20T11:05:16.708Z,3.80
2022-09-20T11:06:17.599Z,3.10
2022-09-20T11:07:18.394Z,2.40
2022-09-20T11:08:19.214Z,2.30
2022-09-20T11:09:20.044Z,2.90
2022-09-20T11:10:20.875Z,3.60
2022-09-20T11:11:21.729Z,2.20
2022-09-20T11:12:22.587Z,4.00
2022-09-20T11:13:23.387Z,8.20
2022-09-20T11:14:24.226Z,9.80
2022-09-20T11:15:25.036Z,8.50
2022-09-20T11:16:25.904Z,14.10
2022-09-20T11:17:26.694Z,7.00
2022-09-20T11:18:27.566Z,3.40
2022-09-20T11:19:28.359Z,6.50
2022-09-20T11:20:29.186Z,22.50
2022-09-20T11:21:30.025Z,24.10
2022-09-20T11:22:30.844Z,17.80
2022-09-20T11:23:31.672Z,11.90
2022-09-20T11:24:32.545Z,6.00
2022-09-20T11:25:33.339Z,5.00
2022-09-20T11:26:34.179Z,6.80
2022-09-20T11:27:35.015Z,10.60
2022-09-20T11:28:35.833Z,6.90
2022-09-20T11:29:36.683Z,9.30
2022-09-20T11:30:37.534Z,4.10
2022-09-20T11:31:38.401Z,4.30
2022-09-20T11:32:39.178Z,2.80
2022-09-20T11:33:41.526Z,3.60
2022-09-20T11:34:40.936Z,5.90
2022-09-20T11:35:41.766Z,5.90
2022-09-20T11:36:42.666Z,2.50
2022-09-20T11:37:43.460Z,5.20
2022-09-20T11:38:44.286Z,6.10
2022-09-20T11:39:45.117Z,3.40
2022-09-20T11:40:46.011Z,3.70
2022-09-20T11:41:46.814Z,3.30
2022-09-20T11:42:47.675Z,2.00
2022-09-20T11:43:48.487Z,4.20
2022-09-20T11:44:49.335Z,3.10
2022-09-20T11:45:50.203Z,3.00
2022-09-20T11:46:50.985Z,2.30
2022-09-20T11:47:55.834Z,1.30
2022-09-20T11:48:52.898Z,1.90
2022-09-20T11:49:53.688Z,2.90
2022-09-20T11:50:54.523Z,3.60
2022-09-20T11:51:55.375Z,3.20
2022-09-20T11:52:56.197Z,2.40
2022-09-20T11:53:57.027Z,4.00
2022-09-20T11:54:57.898Z,2.60
2022-09-20T11:55:58.683Z,2.20
2022-09-20T11:56:59.543Z,2.00
2022-09-20T11:58:00.374Z,1.80
2022-09-20T11:59:01.203Z,3.00
2022-09-20T12:00:02.048Z,4.20
2022-09-20T12:01:02.894Z,5.70
2022-09-20T12:02:03.907Z,3.50
2022-09-20T12:03:04.344Z,3.30
2022-09-20T12:04:30.681Z,3.00
2022-09-20T12:05:06.888Z,4.20
2022-09-20T12:06:06.713Z,2.80
2022-09-20T12:07:11.345Z,4.30
2022-09-20T12:08:08.151Z,3.60
2022-09-20T12:09:08.975Z,5.20
2022-09-20T12:10:09.803Z,3.60
2022-09-20T12:11:10.635Z,2.90
2022-09-20T12:12:11.480Z,4.00
2022-09-20T12:13:12.369Z,3.10
2022-09-20T12:14:13.145Z,1.40
2022-09-20T12:15:13.982Z,2.40
2022-09-20T12:16:14.864Z,4.60
2022-09-20T12:17:15.680Z,2.30
2022-09-20T12:18:16.513Z,1.90
2022-09-20T12:19:17.376Z,2.10
2022-09-20T12:20:19.280Z,2.00
2022-09-20T12:21:18.858Z,1.30
2022-09-20T12:22:19.672Z,1.10
2022-09-20T12:23:20.503Z,1.60
2022-09-20T12:24:21.338Z,3.20
2022-09-20T12:25:22.220Z,1.20
2022-09-20T12:26:23.002Z,1.60
2022-09-20T12:27:23.828Z,1.20
2022-09-20T12:28:24.657Z,2.60
2022-09-20T12:29:25.481Z,2.80
2022-09-20T12:30:26.329Z,2.60
2022-09-20T12:31:27.261Z,2.80
2022-09-20T12:32:28.093Z,2.60
2022-09-20T12:33:28.903Z,1.20
2022-09-20T12:34:29.732Z,2.10
2022-09-20T12:35:30.554Z,1.70
2022-09-20T12:36:31.383Z,2.00
2022-09-20T12:37:32.283Z,2.00
2022-09-20T12:38:33.112Z,1.80
2022-09-20T12:39:33.912Z,1.70
2022-09-20T12:40:34.798Z,1.00
2022-09-20T12:41:35.571Z,2.00
2022-09-20T12:42:36.405Z,2.00
2022-09-20T12:43:37.235Z,3.10
2022-09-20T12:44:38.110Z,3.10
2022-09-20T12:45:38.958Z,3.20
2022-09-20T12:46:39.748Z,3.00
2022-09-20T12:47:40.588Z,3.50
2022-09-20T12:48:41.411Z,2.80
2022-09-20T12:49:42.238Z,3.60
2022-09-20T12:50:43.137Z,3.20
2022-09-20T12:51:43.938Z,2.60
2022-09-20T12:52:44.765Z,2.10
2022-09-20T12:53:45.594Z,2.30
2022-09-20T12:54:46.416Z,2.40
2022-09-20T12:55:47.244Z,2.90
2022-09-20T12:56:48.074Z,1.90
2022-09-20T12:57:48.947Z,2.60
2022-09-20T12:58:49.748Z,4.50
2022-09-20T12:59:50.609Z,2.30
2022-09-20T13:00:51.513Z,3.40
2022-09-20T13:01:52.332Z,2.90
2022-09-20T13:02:53.139Z,4.30
2022-09-20T13:03:54.025Z,4.20
2022-09-20T13:04:54.817Z,3.70
2022-09-20T13:05:55.647Z,4.90
2022-09-20T13:06:56.478Z,1.90
2022-09-20T13:07:57.317Z,2.90
2022-09-20T13:08:58.146Z,3.50
2022-09-20T13:09:59.009Z,2.60
2022-09-20T13:10:59.805Z,2.50
2022-09-20T13:12:00.633Z,4.90
2022-09-20T13:13:01.475Z,3.70
2022-09-20T13:14:02.306Z,3.70
2022-09-20T13:15:03.133Z,3.30
2022-09-20T13:16:04.003Z,3.90
2022-09-20T13:17:04.849Z,3.40
2022-09-20T13:18:05.652Z,2.90
2022-09-20T13:19:06.724Z,2.70
2022-09-20T13:20:07.091Z,4.00
2022-09-20T13:21:07.920Z,2.50
2022-09-20T13:22:08.749Z,2.40
2022-09-20T13:23:09.636Z,3.20
2022-09-20T13:24:10.424Z,4.10
2022-09-20T13:25:11.254Z,3.10
2022-09-20T13:26:12.081Z,3.60
2022-09-20T13:27:13.206Z,2.40
2022-09-20T13:28:17.910Z,2.20
2022-09-20T13:29:15.245Z,4.70
2022-09-20T13:30:15.047Z,4.00
2022-09-20T13:31:15.966Z,1.70
2022-09-20T13:32:16.736Z,2.00
2022-09-20T13:33:17.588Z,3.90